Pagrindinis puslapis
METAR-TAF:

METAR-TAF

Oro uostai :

Valjeduparas, Kolumbija

platuma: 10-26N, ilguma: 073-15W, Aukštis: 138 m

Dabartinis oras

Ataskaita buvo paskelbta 20 minutes, ne 13:00 UTC
Vėjas 11 kt iš Rytų/Šiaurės Rytų
Temperatūra 26°C
Drėgmė 65%
Slėgis 1017 hPa
Matomumas 10 km arba daugiau

METAR: SKVP 281300Z 06011KT 9999 NSC 26/19 A3003

Laikas: 08:20 (13:20 UTC)


TAF: trūkstamas

Orai ataskaitas ir orų prognozės (METAR, TAF).

turimą stotys yra geltonos ir raudonos taškus žemėlapyje.

Perkelti pele per norėdami pamatyti stoties vardą.

Tada spustelėkite, norėdami matyti oro stebėjimo ir prognozės.

Norėdami pakeisti žemėlapį: spustelėkite ant žalios mygtukų su juodo kryžiaus žemyn,; žalią mygtuką su brūkšneliu, jei norite nutolinti; arba žalių rodyklių gretimoms žemėlapius.


METAR-TAF: